Time;durP1;ratioP1;P1;durP2;ratioP2;P2;SDS_P1;SDS_P2;PMS_P1;PMS_P2;Temp;Humidity;BMP_temperature;BMP_pressure;BME280_temperature;BME280_humidity;BME280_pressure;Samples;Min_cycle;Max_cycle;Signal;HPM_P1;HPM_P2
2023/01/31 00:01:21;;;;;;;15.17;1.37;;;3.20;99.90;;;;;;4898979;29;20038;-71
2023/01/31 00:03:51;;;;;;;9.45;1.35;;;3.20;99.90;;;;;;4910692;29;21060;-70
2023/01/31 00:06:20;;;;;;;9.63;0.90;;;3.10;99.90;;;;;;4917643;29;20036;-71
2023/01/31 00:08:48;;;;;;;13.83;1.33;;;3.10;99.90;;;;;;4900327;29;20188;-70
2023/01/31 00:11:17;;;;;;;9.30;1.43;;;3.00;99.90;;;;;;4915553;29;20041;-71
2023/01/31 00:13:43;;;;;;;14.43;1.20;;;3.00;99.90;;;;;;4914377;29;20044;-70
2023/01/31 00:16:11;;;;;;;15.53;0.87;;;3.00;99.90;;;;;;4915624;29;20040;-70
2023/01/31 00:18:38;;;;;;;10.27;1.40;;;3.00;99.90;;;;;;4901044;29;20047;-70
2023/01/31 00:21:12;;;;;;;12.27;1.00;;;3.00;99.90;;;;;;4900416;29;20428;-71
2023/01/31 00:23:40;;;;;;;13.30;1.83;;;3.00;99.90;;;;;;4892033;29;20039;-70
2023/01/31 00:26:21;;;;;;;8.93;1.40;;;3.00;99.90;;;;;;4913172;29;20047;-69
2023/01/31 00:28:49;;;;;;;16.17;1.37;;;3.00;99.90;;;;;;4900302;29;20054;-70
2023/01/31 00:31:19;;;;;;;18.50;2.33;;;3.00;99.90;;;;;;4913503;29;20032;-72
2023/01/31 00:33:50;;;;;;;12.53;1.47;;;3.00;99.90;;;;;;4910369;29;20044;-70
2023/01/31 00:36:21;;;;;;;17.87;1.80;;;3.00;99.90;;;;;;4898768;29;20044;-70
2023/01/31 00:38:48;;;;;;;10.47;1.07;;;3.00;99.90;;;;;;4900724;29;20036;-71
2023/01/31 00:41:22;;;;;;;9.63;1.10;;;3.00;99.90;;;;;;4884733;29;20400;-71
2023/01/31 00:43:50;;;;;;;10.55;1.27;;;3.00;99.90;;;;;;4876474;29;20052;-72
2023/01/31 00:46:19;;;;;;;19.10;1.20;;;2.90;99.90;;;;;;4915114;29;20043;-71
2023/01/31 00:48:45;;;;;;;14.43;1.63;;;3.00;99.90;;;;;;4891982;29;20038;-70
2023/01/31 00:51:12;;;;;;;21.17;3.40;;;2.90;99.90;;;;;;4898867;29;20036;-69
2023/01/31 00:53:38;;;;;;;13.73;1.67;;;2.90;99.90;;;;;;4913855;29;20043;-71
2023/01/31 00:56:08;;;;;;;5.37;0.83;;;2.90;99.90;;;;;;4910419;29;20048;-70
2023/01/31 00:58:35;;;;;;;18.17;1.60;;;2.80;99.90;;;;;;4897091;29;20048;-72
2023/01/31 01:01:12;;;;;;;14.27;1.20;;;2.80;99.90;;;;;;4891752;29;20048;-70
2023/01/31 01:03:39;;;;;;;15.47;1.30;;;2.80;99.90;;;;;;4910611;29;20227;-73
2023/01/31 01:06:06;;;;;;;8.70;1.00;;;2.70;99.90;;;;;;4880595;29;20039;-72
2023/01/31 01:08:34;;;;;;;8.17;0.80;;;2.70;99.90;;;;;;4891715;29;20047;-70
2023/01/31 01:11:05;;;;;;;6.30;1.10;;;2.60;99.90;;;;;;4915640;29;20407;-70
2023/01/31 01:13:32;;;;;;;12.18;1.65;;;2.60;99.90;;;;;;4914264;29;20044;-71
2023/01/31 01:16:04;;;;;;;9.63;1.07;;;2.50;99.90;;;;;;4891340;29;20043;-71
2023/01/31 01:18:30;;;;;;;10.90;0.90;;;2.50;99.90;;;;;;4897309;29;20246;-70
2023/01/31 01:21:03;;;;;;;10.97;1.70;;;2.50;99.90;;;;;;4888866;29;20373;-70
2023/01/31 01:23:29;;;;;;;;;;;2.40;99.90;;;;;;4895340;29;20036;-71
2023/01/31 01:25:55;;;;;;;13.33;1.20;;;2.40;99.90;;;;;;4873052;29;19918;-70
2023/01/31 01:28:21;;;;;;;11.57;1.70;;;2.30;99.90;;;;;;4898703;29;20047;-71
2023/01/31 01:30:48;;;;;;;13.23;1.80;;;2.30;99.90;;;;;;4900954;29;20491;-69
2023/01/31 01:33:14;;;;;;;7.83;1.77;;;2.30;99.90;;;;;;4915423;29;20051;-71
2023/01/31 01:35:40;;;;;;;13.87;2.03;;;2.30;99.90;;;;;;4885507;29;20496;-70
2023/01/31 01:38:06;;;;;;;10.67;1.50;;;2.30;99.90;;;;;;4884107;29;20043;-70
2023/01/31 01:40:37;;;;;;;8.40;1.23;;;2.20;99.90;;;;;;4884784;29;20044;-71
2023/01/31 01:43:04;;;;;;;14.03;1.83;;;2.20;99.90;;;;;;4894557;29;20475;-70
2023/01/31 01:45:30;;;;;;;19.27;2.27;;;2.20;99.90;;;;;;4878134;29;20040;-69
2023/01/31 01:48:05;;;;;;;10.87;1.93;;;2.30;99.90;;;;;;4880591;29;20487;-69
2023/01/31 01:50:41;;;;;;;10.67;2.27;;;2.30;99.90;;;;;;4890661;29;20039;-69
2023/01/31 01:53:17;;;;;;;13.17;1.67;;;2.30;99.90;;;;;;4908799;29;20095;-69
2023/01/31 01:56:15;;;;;;;13.40;2.73;;;2.30;99.90;;;;;;4891832;29;20044;-69
2023/01/31 01:58:48;;;;;;;6.93;1.73;;;2.30;99.90;;;;;;4908183;29;20048;-70
2023/01/31 02:01:15;;;;;;;;;;;2.30;99.90;;;;;;4900484;29;20738;-69
2023/01/31 02:03:48;;;;;;;7.50;1.73;;;2.30;99.90;;;;;;4908069;29;20481;-70
2023/01/31 02:06:14;;;;;;;11.70;1.80;;;2.30;99.90;;;;;;4891476;29;20036;-69
2023/01/31 02:08:42;;;;;;;16.47;2.80;;;2.20;99.90;;;;;;4920268;29;20044;-70
2023/01/31 02:11:28;;;;;;;11.17;2.10;;;2.20;99.90;;;;;;4902041;29;20035;-72
2023/01/31 02:14:02;;;;;;;8.93;1.57;;;2.20;99.90;;;;;;4906152;29;20544;-72
2023/01/31 02:16:28;;;;;;;12.97;1.50;;;2.20;99.90;;;;;;4892064;29;20150;-69
2023/01/31 02:18:55;;;;;;;13.17;2.43;;;2.20;99.90;;;;;;4908751;29;20035;-70
2023/01/31 02:21:55;;;;;;;12.43;1.57;;;2.20;99.90;;;;;;4895846;29;20404;-69
2023/01/31 02:24:43;;;;;;;10.33;1.70;;;2.20;99.90;;;;;;4904341;29;21819;-70
2023/01/31 02:27:27;;;;;;;9.33;1.20;;;2.30;99.90;;;;;;4880915;29;20400;-70
2023/01/31 02:30:03;;;;;;;14.47;1.73;;;2.40;99.90;;;;;;4909568;29;20042;-70
2023/01/31 02:32:38;;;;;;;14.37;1.43;;;2.50;99.90;;;;;;4897603;29;20032;-70
2023/01/31 02:35:23;;;;;;;17.23;2.20;;;2.50;99.90;;;;;;4892321;29;20042;-69
2023/01/31 02:38:25;;;;;;;14.23;1.27;;;2.50;99.90;;;;;;4896659;29;20072;-71
2023/01/31 02:41:10;;;;;;;14.83;1.93;;;2.60;99.90;;;;;;4845167;29;20442;-70
2023/01/31 02:46:45;;;;;;;13.33;1.77;;;2.70;99.90;;;;;;4910918;29;20051;-70
2023/01/31 02:49:35;;;;;;;13.53;2.10;;;2.80;99.90;;;;;;4897271;29;20036;-71
2023/01/31 02:52:19;;;;;;;;;;;2.80;99.90;;;;;;4893021;29;20495;-71
2023/01/31 02:57:57;;;;;;;16.50;2.13;;;2.90;99.90;;;;;;4915965;29;20492;-70
2023/01/31 03:00:26;;;;;;;18.10;1.90;;;3.00;99.90;;;;;;4902079;29;20032;-70
2023/01/31 03:02:52;;;;;;;18.73;2.60;;;3.00;99.90;;;;;;4899424;29;20036;-70
2023/01/31 03:05:19;;;;;;;15.43;2.00;;;3.00;99.90;;;;;;4885291;29;20508;-72
2023/01/31 03:07:51;;;;;;;13.80;1.73;;;3.00;99.90;;;;;;4904282;29;20495;-70
2023/01/31 03:10:23;;;;;;;14.93;1.45;;;3.00;99.90;;;;;;4892787;29;20047;-70
2023/01/31 03:13:22;;;;;;;10.80;1.53;;;3.10;99.90;;;;;;4915976;29;20043;-70
2023/01/31 03:19:17;;;;;;;13.17;1.07;;;3.10;99.90;;;;;;4914700;29;20044;-69
2023/01/31 03:21:53;;;;;;;15.97;1.70;;;3.10;99.90;;;;;;4896774;29;20455;-70
2023/01/31 03:24:25;;;;;;;15.67;1.43;;;3.20;99.90;;;;;;4908537;29;20048;-70
2023/01/31 03:26:54;;;;;;;8.77;1.50;;;3.20;99.90;;;;;;4908932;29;20043;-70
2023/01/31 03:29:25;;;;;;;20.33;2.93;;;3.20;99.90;;;;;;4917103;29;20032;-70
2023/01/31 03:32:00;;;;;;;17.77;1.87;;;3.20;99.90;;;;;;4884302;29;20055;-70
2023/01/31 03:34:26;;;;;;;19.70;2.83;;;3.30;99.90;;;;;;4886029;29;20057;-70
2023/01/31 03:37:11;;;;;;;15.97;3.07;;;3.30;99.90;;;;;;4899325;29;20628;-71
2023/01/31 03:40:15;;;;;;;19.27;3.30;;;3.40;99.90;;;;;;4887634;29;20070;-71
2023/01/31 03:42:56;;;;;;;;;;;3.40;99.90;;;;;;4885857;29;20044;-71
2023/01/31 03:45:40;;;;;;;10.73;2.53;;;3.40;99.90;;;;;;4885107;29;19919;-71
2023/01/31 03:48:13;;;;;;;15.33;2.17;;;3.50;99.90;;;;;;4920686;29;20492;-71
2023/01/31 03:51:03;;;;;;;17.97;3.27;;;3.50;99.90;;;;;;4894488;29;20036;-71
2023/01/31 03:54:05;;;;;;;18.60;3.43;;;3.50;99.90;;;;;;4907329;29;20035;-70
2023/01/31 03:56:46;;;;;;;13.73;3.22;;;3.50;99.90;;;;;;4878006;29;20044;-71
2023/01/31 03:59:19;;;;;;;18.13;3.57;;;3.60;99.90;;;;;;4892425;29;20447;-70
2023/01/31 04:01:48;;;;;;;15.67;4.17;;;3.60;99.90;;;;;;4883242;29;20040;-71
2023/01/31 04:04:23;;;;;;;20.47;3.83;;;3.60;99.90;;;;;;4885929;29;20927;-70
2023/01/31 04:06:50;;;;;;;24.17;4.88;;;3.70;99.90;;;;;;4899722;29;20047;-70
2023/01/31 04:09:16;;;;;;;18.20;3.83;;;3.70;99.90;;;;;;4881624;29;20118;-71
2023/01/31 04:11:47;;;;;;;16.03;3.60;;;3.60;99.90;;;;;;4903971;29;20629;-71
2023/01/31 04:14:14;;;;;;;22.90;5.33;;;3.70;99.90;;;;;;4889974;29;20036;-71
2023/01/31 04:16:40;;;;;;;19.63;5.50;;;3.70;99.90;;;;;;4913242;29;20674;-71
2023/01/31 04:19:07;;;;;;;25.80;6.37;;;3.70;99.90;;;;;;4901872;29;20554;-70
2023/01/31 04:21:33;;;;;;;26.93;5.87;;;3.70;99.90;;;;;;4917589;29;20039;-70
2023/01/31 04:23:59;;;;;;;20.13;5.20;;;3.70;99.90;;;;;;4914029;29;20044;-72
2023/01/31 04:26:26;;;;;;;17.40;4.93;;;3.70;99.90;;;;;;4897114;29;20036;-70
2023/01/31 04:28:52;;;;;;;16.70;5.30;;;3.70;99.90;;;;;;4901737;29;20510;-70
2023/01/31 04:31:18;;;;;;;21.47;5.47;;;3.70;99.90;;;;;;4886411;29;20056;-71
2023/01/31 04:33:44;;;;;;;17.40;5.47;;;3.70;99.90;;;;;;4892920;29;20543;-70
2023/01/31 04:36:11;;;;;;;20.53;6.50;;;3.70;99.90;;;;;;4900658;29;20059;-70
2023/01/31 04:38:37;;;;;;;28.73;6.87;;;3.70;99.90;;;;;;4921851;29;20040;-70
2023/01/31 04:41:03;;;;;;;25.73;6.53;;;3.70;99.90;;;;;;4900388;29;20047;-71
2023/01/31 04:43:30;;;;;;;21.97;6.07;;;3.70;99.90;;;;;;4886187;29;20534;-73
2023/01/31 04:45:56;;;;;;;28.80;6.37;;;3.80;99.90;;;;;;4891507;29;20043;-69
2023/01/31 04:48:22;;;;;;;28.30;7.20;;;3.80;99.90;;;;;;4913823;29;20032;-71
2023/01/31 04:50:49;;;;;;;25.13;6.90;;;3.80;99.90;;;;;;4886715;29;20066;-70
2023/01/31 04:53:15;;;;;;;23.40;8.60;;;3.80;99.90;;;;;;4884502;29;20422;-71
2023/01/31 04:55:41;;;;;;;31.70;11.67;;;3.80;99.90;;;;;;4910911;29;20396;-70
2023/01/31 04:58:07;;;;;;;73.20;38.30;;;3.90;99.90;;;;;;4917402;29;20404;-70
2023/01/31 05:00:34;;;;;;;167.27;89.13;;;3.90;99.90;;;;;;4919662;29;20035;-73
2023/01/31 05:03:00;;;;;;;252.87;130.80;;;3.90;99.90;;;;;;4898350;29;20044;-70
2023/01/31 05:05:27;;;;;;;221.33;115.80;;;3.80;99.90;;;;;;4905804;29;20039;-70
2023/01/31 05:07:53;;;;;;;159.73;91.10;;;3.90;99.90;;;;;;4886345;29;20044;-71
2023/01/31 05:10:19;;;;;;;138.00;84.63;;;3.90;99.90;;;;;;4916732;29;20043;-70
2023/01/31 05:12:46;;;;;;;102.53;73.03;;;3.90;99.90;;;;;;4907727;29;20399;-70
2023/01/31 05:15:12;;;;;;;105.77;71.17;;;4.00;99.90;;;;;;4905654;29;20106;-71
2023/01/31 05:17:39;;;;;;;88.40;62.77;;;4.00;99.90;;;;;;4897787;29;20047;-70
2023/01/31 05:20:05;;;;;;;155.80;107.97;;;4.00;99.90;;;;;;4893726;29;20051;-70
2023/01/31 05:22:32;;;;;;;103.32;73.47;;;4.10;99.90;;;;;;4901340;29;20036;-70
2023/01/31 05:24:58;;;;;;;134.23;90.80;;;4.10;99.90;;;;;;4890151;29;20051;-70
2023/01/31 05:27:25;;;;;;;121.77;87.90;;;4.10;99.90;;;;;;4888571;29;20526;-70
2023/01/31 05:29:51;;;;;;;131.13;90.13;;;4.10;99.90;;;;;;4883982;29;20079;-70
2023/01/31 05:32:18;;;;;;;100.10;72.53;;;4.20;99.90;;;;;;4900298;29;20040;-70
2023/01/31 05:34:44;;;;;;;81.33;52.90;;;4.20;99.90;;;;;;4907134;29;20035;-70
2023/01/31 05:37:11;;;;;;;76.93;48.93;;;4.20;99.90;;;;;;4898851;29;20067;-70
2023/01/31 05:39:37;;;;;;;64.67;42.10;;;4.20;99.90;;;;;;4908152;29;20032;-70
2023/01/31 05:42:04;;;;;;;57.30;35.63;;;4.20;99.90;;;;;;4899787;29;20043;-73
2023/01/31 05:44:31;;;;;;;55.13;27.60;;;4.20;99.90;;;;;;4904108;29;20047;-70
2023/01/31 05:46:59;;;;;;;42.47;21.00;;;4.20;99.90;;;;;;4919623;29;20044;-71
2023/01/31 05:49:26;;;;;;;109.90;53.87;;;4.20;99.90;;;;;;4895500;29;20393;-70
2023/01/31 05:51:52;;;;;;;104.80;59.85;;;4.20;99.90;;;;;;4911610;29;20494;-71
2023/01/31 05:54:18;;;;;;;116.30;64.17;;;4.20;99.90;;;;;;4874252;29;21222;-72
2023/01/31 05:56:45;;;;;;;141.55;77.65;;;4.20;99.90;;;;;;4898225;29;20375;-70
2023/01/31 05:59:11;;;;;;;163.45;93.90;;;4.20;99.90;;;;;;4879690;29;20421;-71
2023/01/31 06:01:37;;;;;;;175.80;97.23;;;4.20;99.90;;;;;;4883064;29;20051;-73
2023/01/31 06:04:04;;;;;;;194.82;98.38;;;4.20;99.90;;;;;;4889429;29;20519;-73
2023/01/31 06:06:30;;;;;;;161.85;77.30;;;4.30;99.90;;;;;;4894602;29;20058;-72
2023/01/31 06:08:56;;;;;;;110.07;46.45;;;4.30;99.90;;;;;;4898075;29;20488;-71
2023/01/31 06:11:24;;;;;;;84.72;34.63;;;4.30;99.90;;;;;;4894940;29;20055;-71
2023/01/31 06:13:50;;;;;;;58.05;25.83;;;4.30;99.90;;;;;;4876304;29;20054;-71
2023/01/31 06:16:16;;;;;;;62.88;28.20;;;4.30;99.90;;;;;;4903953;29;20658;-71
2023/01/31 06:18:43;;;;;;;64.40;32.03;;;4.30;99.90;;;;;;4905629;29;20051;-71
2023/01/31 06:21:10;;;;;;;76.22;37.40;;;4.40;99.90;;;;;;4891103;29;20040;-72
2023/01/31 06:23:37;;;;;;;70.47;34.45;;;4.40;99.90;;;;;;4892488;29;20039;-71
2023/01/31 06:26:03;;;;;;;64.53;29.02;;;4.40;99.90;;;;;;4892362;29;20040;-70
2023/01/31 06:28:29;;;;;;;63.55;29.13;;;4.50;99.90;;;;;;4912568;29;20036;-70
2023/01/31 06:30:56;;;;;;;54.67;24.15;;;4.50;99.90;;;;;;4901554;29;20039;-70
2023/01/31 06:33:22;;;;;;;57.15;23.27;;;4.50;99.90;;;;;;4917936;29;20036;-70
2023/01/31 06:35:48;;;;;;;40.28;15.75;;;4.50;99.90;;;;;;4884039;29;20059;-70
2023/01/31 06:38:15;;;;;;;44.03;16.80;;;4.50;99.90;;;;;;4888472;29;20048;-71
2023/01/31 06:40:41;;;;;;;39.20;14.57;;;4.50;99.90;;;;;;4883204;29;20035;-70
2023/01/31 06:43:07;;;;;;;32.65;14.10;;;4.50;99.90;;;;;;4896940;29;20029;-70
2023/01/31 06:45:34;;;;;;;34.38;13.55;;;4.50;99.90;;;;;;4875972;29;20040;-69
2023/01/31 06:48:00;;;;;;;33.08;14.45;;;4.50;99.90;;;;;;4899748;29;20055;-70
2023/01/31 06:50:26;;;;;;;31.00;12.43;;;4.50;99.90;;;;;;4892147;29;20040;-70
2023/01/31 06:52:53;;;;;;;33.60;12.80;;;4.60;99.90;;;;;;4884034;29;20491;-70
2023/01/31 06:55:19;;;;;;;32.53;12.35;;;4.60;99.90;;;;;;4882459;29;20048;-69
2023/01/31 06:57:49;;;;;;;37.25;13.88;;;4.60;99.90;;;;;;4913543;29;20047;-70
2023/01/31 07:00:17;;;;;;;34.50;12.40;;;4.60;99.90;;;;;;4867788;29;20404;-70
2023/01/31 07:02:45;;;;;;;43.75;16.02;;;4.70;99.90;;;;;;4873520;29;20046;-70
2023/01/31 07:05:11;;;;;;;37.65;14.02;;;4.70;99.90;;;;;;4891305;29;20472;-70
2023/01/31 07:07:37;;;;;;;45.20;14.07;;;4.70;99.90;;;;;;4919168;29;20046;-70
2023/01/31 07:10:04;;;;;;;39.15;15.23;;;4.70;99.90;;;;;;4904056;29;20047;-69
2023/01/31 07:12:30;;;;;;;40.95;16.70;;;4.70;99.90;;;;;;4899729;29;20481;-71
2023/01/31 07:14:56;;;;;;;36.10;15.00;;;4.80;99.90;;;;;;4900339;29;20868;-70
2023/01/31 07:17:23;;;;;;;34.30;12.13;;;4.80;99.90;;;;;;4914760;29;20584;-69
2023/01/31 07:19:49;;;;;;;40.05;16.27;;;4.80;99.90;;;;;;4897205;29;20047;-70
2023/01/31 07:22:15;;;;;;;32.55;12.75;;;4.80;99.90;;;;;;4898481;29;20043;-70
2023/01/31 07:24:42;;;;;;;37.72;14.68;;;4.80;99.90;;;;;;4900306;29;20050;-69
2023/01/31 07:27:10;;;;;;;44.88;15.32;;;4.70;99.90;;;;;;4883171;29;20048;-72
2023/01/31 07:29:37;;;;;;;32.95;14.73;;;4.70;99.90;;;;;;4899803;29;20142;-69
2023/01/31 07:32:04;;;;;;;36.50;12.82;;;4.70;99.90;;;;;;4903012;29;20050;-70
2023/01/31 07:34:30;;;;;;;36.47;12.60;;;4.70;99.90;;;;;;4906405;29;20060;-69
2023/01/31 07:36:56;;;;;;;40.13;13.65;;;4.70;99.90;;;;;;4902678;29;20056;-69
2023/01/31 07:39:23;;;;;;;42.60;16.73;;;4.80;99.90;;;;;;4907990;29;20044;-70
2023/01/31 07:41:49;;;;;;;45.17;16.33;;;4.80;99.90;;;;;;4911227;29;20043;-69
2023/01/31 07:44:15;;;;;;;44.53;17.77;;;4.80;99.90;;;;;;4874226;29;20522;-70
2023/01/31 07:46:42;;;;;;;31.92;14.10;;;4.80;99.90;;;;;;4914278;29;20400;-69
2023/01/31 07:49:09;;;;;;;46.67;19.25;;;4.80;99.90;;;;;;4916835;29;20044;-72
2023/01/31 07:51:37;;;;;;;38.92;17.52;;;4.80;99.90;;;;;;4916338;29;20046;-71
2023/01/31 07:54:05;;;;;;;38.03;16.00;;;4.80;99.90;;;;;;4905294;29;20044;-72
2023/01/31 07:56:31;;;;;;;36.60;15.52;;;4.90;99.90;;;;;;4902006;29;20115;-70
2023/01/31 07:58:58;;;;;;;39.42;17.02;;;4.90;99.90;;;;;;4902942;29;20055;-69
2023/01/31 08:04:15;;;;;;;46.83;16.30;;;4.90;99.90;;;;;;4874260;29;20427;-70
2023/01/31 08:06:43;;;;;;;45.08;19.50;;;4.90;99.90;;;;;;4899746;29;20605;-71
2023/01/31 08:09:10;;;;;;;51.88;20.67;;;4.90;99.90;;;;;;4916540;29;20032;-69
2023/01/31 08:11:36;;;;;;;44.00;18.38;;;5.00;99.90;;;;;;4899559;29;20028;-70
2023/01/31 08:14:03;;;;;;;47.22;19.35;;;5.00;99.90;;;;;;4904290;29;20047;-71
2023/01/31 08:16:30;;;;;;;75.30;25.52;;;5.10;99.90;;;;;;4899675;29;20841;-70
2023/01/31 08:18:57;;;;;;;77.05;30.10;;;5.10;99.90;;;;;;4893020;29;20059;-70
2023/01/31 08:21:23;;;;;;;118.47;38.97;;;5.10;99.90;;;;;;4914904;29;20495;-71
2023/01/31 08:23:49;;;;;;;143.43;53.45;;;5.10;99.90;;;;;;4874003;29;20050;-71
2023/01/31 08:26:21;;;;;;;162.13;60.88;;;5.10;99.90;;;;;;4899458;29;20443;-70
2023/01/31 08:28:49;;;;;;;128.60;48.38;;;5.10;99.90;;;;;;4901104;29;20392;-70
2023/01/31 08:31:19;;;;;;;86.53;36.10;;;5.10;99.90;;;;;;4896270;29;20055;-71
2023/01/31 08:33:46;;;;;;;68.85;27.65;;;5.10;99.90;;;;;;4904405;29;20043;-72
2023/01/31 08:36:21;;;;;;;57.40;22.83;;;5.10;99.90;;;;;;4913866;29;20485;-70
2023/01/31 08:38:48;;;;;;;56.97;20.95;;;5.10;99.90;;;;;;4913039;29;20048;-70
2023/01/31 08:41:16;;;;;;;50.78;19.55;;;5.20;99.90;;;;;;4900936;29;20039;-70
2023/01/31 08:43:43;;;;;;;56.47;21.88;;;5.20;99.90;;;;;;4897171;29;20067;-69
2023/01/31 08:46:10;;;;;;;44.28;20.65;;;5.20;99.90;;;;;;4904050;29;20027;-70
2023/01/31 08:48:37;;;;;;;45.78;18.27;;;5.30;99.90;;;;;;4918062;29;20035;-70
2023/01/31 08:51:05;;;;;;;33.67;14.52;;;5.30;99.90;;;;;;4916926;29;20345;-70
2023/01/31 08:53:32;;;;;;;44.08;17.75;;;5.30;99.90;;;;;;4910680;29;20185;-72
2023/01/31 08:56:04;;;;;;;46.95;18.67;;;5.40;99.90;;;;;;4895304;29;20479;-70
2023/01/31 08:58:32;;;;;;;49.63;19.88;;;5.40;99.90;;;;;;4914146;29;20086;-70
2023/01/31 09:01:04;;;;;;;58.38;25.10;;;5.40;99.90;;;;;;4882173;29;20728;-69
2023/01/31 09:03:30;;;;;;;41.08;21.13;;;5.40;99.90;;;;;;4906755;29;20040;-71
2023/01/31 09:06:01;;;;;;;52.83;24.17;;;5.50;99.90;;;;;;4900501;29;20519;-70
2023/01/31 09:08:28;;;;;;;73.20;40.83;;;5.50;99.90;;;;;;4903504;29;20043;-71
2023/01/31 09:10:57;;;;;;;70.70;39.35;;;5.50;99.90;;;;;;4912227;29;20032;-69
2023/01/31 09:13:23;;;;;;;64.25;32.40;;;5.50;99.90;;;;;;4896640;29;20495;-71
2023/01/31 09:16:01;;;;;;;50.47;26.17;;;5.60;99.90;;;;;;4907559;29;20033;-69
2023/01/31 09:18:27;;;;;;;52.42;22.73;;;5.60;99.90;;;;;;4899211;29;20036;-70
2023/01/31 09:20:54;;;;;;;43.80;18.70;;;5.60;99.90;;;;;;4894981;29;20047;-70
2023/01/31 09:23:21;;;;;;;37.67;16.27;;;5.60;99.90;;;;;;4916299;29;20051;-70
2023/01/31 09:25:54;;;;;;;47.10;19.70;;;5.60;99.90;;;;;;4891094;29;20431;-70
2023/01/31 09:28:21;;;;;;;39.75;19.70;;;5.60;99.90;;;;;;4914442;29;20040;-70
2023/01/31 09:30:49;;;;;;;44.70;19.52;;;5.70;99.90;;;;;;4913794;29;20047;-70
2023/01/31 09:33:16;;;;;;;44.28;19.92;;;5.70;99.90;;;;;;4893913;29;20040;-70
2023/01/31 09:35:42;;;;;;;28.77;13.30;;;5.70;99.90;;;;;;4891713;29;20031;-72
2023/01/31 09:38:08;;;;;;;31.92;11.85;;;5.70;99.90;;;;;;4910162;29;20407;-70
2023/01/31 09:40:38;;;;;;;29.48;9.75;;;5.70;99.90;;;;;;4909216;29;20397;-71
2023/01/31 09:43:05;;;;;;;26.23;9.45;;;5.70;99.90;;;;;;4899198;29;20047;-71
2023/01/31 09:45:35;;;;;;;36.83;12.73;;;5.70;99.90;;;;;;4894189;29;20487;-71
2023/01/31 09:48:04;;;;;;;33.80;10.52;;;5.80;99.90;;;;;;4895386;29;20528;-70
2023/01/31 09:50:39;;;;;;;23.33;9.18;;;5.80;99.90;;;;;;4909950;29;20044;-70
2023/01/31 09:53:08;;;;;;;26.80;8.50;;;5.80;99.90;;;;;;4910305;29;20043;-70
2023/01/31 09:55:48;;;;;;;25.15;7.65;;;5.80;99.90;;;;;;4891256;29;20400;-71
2023/01/31 09:58:32;;;;;;;26.33;9.23;;;5.90;99.90;;;;;;4889474;29;20048;-72
2023/01/31 10:01:16;;;;;;;21.70;7.75;;;5.90;99.90;;;;;;4906502;29;20098;-70
2023/01/31 10:04:16;;;;;;;20.52;6.93;;;5.90;99.90;;;;;;4908027;29;20036;-71
2023/01/31 10:07:25;;;;;;;19.00;5.80;;;5.90;99.90;;;;;;4894944;29;20028;-70
2023/01/31 10:10:16;;;;;;;19.33;6.15;;;6.00;99.90;;;;;;4847918;29;20062;-69
2023/01/31 10:12:47;;;;;;;20.63;5.80;;;6.00;99.90;;;;;;4865949;29;20045;-70
2023/01/31 10:15:45;;;;;;;24.58;6.57;;;6.00;99.90;;;;;;4857703;29;20063;-71
2023/01/31 10:18:31;;;;;;;19.23;6.88;;;6.00;99.90;;;;;;4863721;29;20043;-72
2023/01/31 10:21:04;;;;;;;21.45;7.78;;;6.00;99.90;;;;;;4907212;29;20031;-70
2023/01/31 10:23:53;;;;;;;22.63;6.25;;;6.10;99.90;;;;;;4891881;29;20510;-72
2023/01/31 10:26:28;;;;;;;15.30;6.03;;;6.20;99.90;;;;;;4872716;29;20032;-70
2023/01/31 10:29:07;;;;;;;18.98;5.70;;;6.30;99.90;;;;;;4892688;29;20048;-72
2023/01/31 10:31:37;;;;;;;21.80;5.45;;;6.30;99.90;;;;;;4905579;29;20049;-71
2023/01/31 10:34:22;;;;;;;18.95;5.75;;;6.50;99.90;;;;;;4898492;29;20146;-71
2023/01/31 10:37:01;;;;;;;19.50;5.28;;;6.50;99.90;;;;;;4894742;29;20055;-71
2023/01/31 10:39:33;;;;;;;17.80;4.65;;;6.60;99.90;;;;;;4901932;29;20059;-72
2023/01/31 10:42:05;;;;;;;18.85;5.18;;;6.50;99.90;;;;;;4901456;29;20071;-71
2023/01/31 10:44:57;;;;;;;17.67;4.40;;;6.60;99.90;;;;;;4888320;29;20040;-70
2023/01/31 10:47:32;;;;;;;19.92;5.28;;;6.60;99.90;;;;;;4909772;29;20040;-70
2023/01/31 10:49:58;;;;;;;21.02;5.28;;;6.60;99.90;;;;;;4908300;29;20063;-71
2023/01/31 10:53:10;;;;;;;20.42;5.68;;;6.70;99.90;;;;;;4909143;29;20035;-70
2023/01/31 10:56:14;;;;;;;24.13;5.57;;;6.80;99.90;;;;;;4862637;29;20047;-72
2023/01/31 10:58:41;;;;;;;20.40;5.93;;;6.80;99.90;;;;;;4880589;29;20415;-71
2023/01/31 11:01:10;;;;;;;20.65;6.20;;;6.80;99.90;;;;;;4899869;29;20056;-71
2023/01/31 11:03:37;;;;;;;15.98;5.57;;;6.90;99.90;;;;;;4888079;29;20055;-70
2023/01/31 11:06:05;;;;;;;23.60;6.53;;;6.90;99.90;;;;;;4914404;29;20566;-72
2023/01/31 11:08:41;;;;;;;18.83;6.95;;;6.90;99.90;;;;;;4880941;29;20036;-71
2023/01/31 11:11:11;;;;;;;18.58;6.85;;;7.00;99.90;;;;;;4898916;29;20036;-72
2023/01/31 11:13:38;;;;;;;21.83;8.20;;;7.10;99.90;;;;;;4892984;29;20035;-74
2023/01/31 11:16:08;;;;;;;17.73;6.95;;;7.10;99.90;;;;;;4891359;29;20047;-71
2023/01/31 11:18:42;;;;;;;20.05;7.78;;;7.10;99.90;;;;;;4897599;29;20518;-73
2023/01/31 11:21:17;;;;;;;23.63;7.63;;;7.10;99.90;;;;;;4906779;29;20051;-71
2023/01/31 11:23:44;;;;;;;21.17;7.28;;;7.10;99.90;;;;;;4912557;29;20645;-72
2023/01/31 11:26:12;;;;;;;20.67;5.55;;;7.20;99.90;;;;;;4895582;29;20060;-73
2023/01/31 11:28:39;;;;;;;21.48;6.07;;;7.20;99.90;;;;;;4898708;29;20044;-73
2023/01/31 11:31:18;;;;;;;27.90;7.85;;;7.20;99.90;;;;;;4884858;29;20491;-71
2023/01/31 11:34:16;;;;;;;18.35;6.82;;;7.20;99.90;;;;;;4897018;29;20051;-71
2023/01/31 11:36:46;;;;;;;15.30;6.13;;;7.20;99.90;;;;;;4882967;29;20053;-71
2023/01/31 11:39:34;;;;;;;28.33;8.50;;;7.10;99.90;;;;;;4895618;29;20040;-71
2023/01/31 11:42:15;;;;;;;15.32;6.55;;;7.20;99.90;;;;;;4912777;29;20586;-71
2023/01/31 11:45:00;;;;;;;12.45;5.75;;;7.10;99.90;;;;;;4907566;29;20036;-71
2023/01/31 11:47:51;;;;;;;27.08;6.82;;;7.20;99.90;;;;;;4911262;29;20043;-71
2023/01/31 11:50:25;;;;;;;17.85;6.88;;;7.20;99.90;;;;;;4885397;29;20063;-71
2023/01/31 11:53:01;;;;;;;24.33;7.80;;;7.20;99.90;;;;;;4892720;29;20055;-71
2023/01/31 11:55:36;;;;;;;16.98;7.20;;;7.20;99.90;;;;;;4910349;29;20032;-71
2023/01/31 11:58:12;;;;;;;23.25;7.63;;;7.30;99.90;;;;;;4916085;29;20633;-71
2023/01/31 12:00:51;;;;;;;19.02;6.05;;;7.30;99.90;;;;;;4900084;29;20044;-73
2023/01/31 12:03:18;;;;;;;21.60;6.75;;;7.30;99.90;;;;;;4901432;29;20471;-70
2023/01/31 12:05:50;;;;;;;21.50;7.15;;;7.30;99.90;;;;;;4894673;29;20050;-70
2023/01/31 12:08:39;;;;;;;15.23;4.93;;;7.30;99.90;;;;;;4917802;29;20036;-70
2023/01/31 12:11:18;;;;;;;21.90;6.65;;;7.30;99.90;;;;;;4912070;29;20040;-70
2023/01/31 12:13:50;;;;;;;15.90;5.50;;;7.20;99.90;;;;;;4895786;29;20040;-70
2023/01/31 12:16:23;;;;;;;19.42;7.32;;;7.20;99.90;;;;;;4913496;29;20024;-69
2023/01/31 12:19:11;;;;;;;22.42;6.75;;;7.20;99.90;;;;;;4899139;29;20455;-68
2023/01/31 12:22:07;;;;;;;18.83;6.88;;;7.20;99.90;;;;;;4909886;29;20036;-69
2023/01/31 12:24:57;;;;;;;23.50;9.48;;;7.20;99.90;;;;;;4907955;29;20404;-68
2023/01/31 12:27:31;;;;;;;22.77;7.45;;;7.30;99.90;;;;;;4900865;29;20451;-70
2023/01/31 12:30:29;;;;;;;20.65;5.88;;;7.30;99.90;;;;;;4900890;29;20059;-70
2023/01/31 12:33:25;;;;;;;14.95;4.20;;;7.20;99.90;;;;;;4916485;29;20042;-68
2023/01/31 12:36:20;;;;;;;14.52;3.78;;;7.30;99.90;;;;;;4907808;29;20055;-68
2023/01/31 12:39:08;;;;;;;14.70;5.05;;;7.20;99.90;;;;;;4886931;29;20040;-68
2023/01/31 12:41:34;;;;;;;10.10;3.97;;;7.30;99.90;;;;;;4897626;29;20392;-73
2023/01/31 12:44:22;;;;;;;9.88;2.90;;;7.30;99.90;;;;;;4902553;29;20051;-76
2023/01/31 12:47:02;;;;;;;11.63;4.28;;;7.30;99.90;;;;;;4921148;29;20491;-76
2023/01/31 12:49:57;;;;;;;16.00;4.35;;;7.30;99.90;;;;;;4912533;29;20055;-74
2023/01/31 12:52:42;;;;;;;9.40;2.97;;;7.30;99.90;;;;;;4909308;29;20048;-73
2023/01/31 12:55:35;;;;;;;9.93;3.72;;;7.30;99.90;;;;;;4905872;29;20031;-71
2023/01/31 12:58:25;;;;;;;8.45;3.85;;;7.30;99.90;;;;;;4887751;29;20031;-70
2023/01/31 13:01:02;;;;;;;10.07;4.18;;;7.30;99.90;;;;;;4847106;29;20055;-71
2023/01/31 13:03:47;;;;;;;15.40;4.20;;;7.30;99.90;;;;;;4905606;29;20039;-71
2023/01/31 13:06:28;;;;;;;13.43;4.18;;;7.30;99.90;;;;;;4915088;29;20044;-72
2023/01/31 13:09:00;;;;;;;8.23;2.63;;;7.30;99.90;;;;;;4897136;29;20511;-71
2023/01/31 13:11:37;;;;;;;8.63;4.00;;;7.30;99.90;;;;;;4913166;29;20032;-71
2023/01/31 13:14:08;;;;;;;13.18;4.05;;;7.30;99.90;;;;;;4900613;29;20509;-72
2023/01/31 13:16:38;;;;;;;16.05;5.13;;;7.30;99.90;;;;;;4886009;29;20044;-73
2023/01/31 13:19:20;;;;;;;14.88;6.28;;;7.30;99.90;;;;;;4913105;29;20055;-72
2023/01/31 13:21:53;;;;;;;13.18;4.93;;;7.40;99.90;;;;;;4907943;29;20047;-75